Time;durP1;ratioP1;P1;durP2;ratioP2;P2;SDS_P1;SDS_P2;PMS_P1;PMS_P2;Temp;Humidity;BMP_temperature;BMP_pressure;BME280_temperature;BME280_humidity;BME280_pressure;Samples;Min_cycle;Max_cycle;Signal;HPM_P1;HPM_P2
2023/09/12 00:00:54;;;;;;;12.13;8.00;;;20.00;79.70;;;;;;4998742;28;20045;-63
2023/09/12 00:03:21;;;;;;;10.35;8.18;;;19.90;79.80;;;;;;4998005;28;20677;-63
2023/09/12 00:05:54;;;;;;;9.07;7.95;;;19.90;80.10;;;;;;4997690;28;20521;-63
2023/09/12 00:08:19;;;;;;;8.20;7.40;;;19.90;80.70;;;;;;4998513;28;20042;-64
2023/09/12 00:10:45;;;;;;;10.93;8.10;;;19.90;80.20;;;;;;4997772;28;20045;-64
2023/09/12 00:13:11;;;;;;;8.43;7.55;;;19.80;80.30;;;;;;4996280;28;20053;-62
2023/09/12 00:15:36;;;;;;;8.85;7.95;;;19.80;80.30;;;;;;4997720;28;20066;-63
2023/09/12 00:18:03;;;;;;;9.07;7.22;;;19.80;80.50;;;;;;4998680;28;20173;-63
2023/09/12 00:20:28;;;;;;;9.98;7.82;;;19.70;80.40;;;;;;4997395;28;20042;-63
2023/09/12 00:22:54;;;;;;;10.55;8.05;;;19.70;80.50;;;;;;4996116;28;20038;-63
2023/09/12 00:25:20;;;;;;;9.45;7.50;;;19.70;80.60;;;;;;4996596;28;20552;-64
2023/09/12 00:27:46;;;;;;;8.80;7.72;;;19.70;80.60;;;;;;4996401;28;20654;-64
2023/09/12 00:30:15;;;;;;;8.98;8.07;;;19.60;80.50;;;;;;4998767;28;20037;-62
2023/09/12 00:32:40;;;;;;;10.43;8.15;;;19.60;81.60;;;;;;4996141;28;20038;-63
2023/09/12 00:35:07;;;;;;;8.90;7.60;;;19.60;80.60;;;;;;4997183;28;20217;-63
2023/09/12 00:37:32;;;;;;;10.18;8.10;;;19.50;80.60;;;;;;4994901;28;20035;-63
2023/09/12 00:39:58;;;;;;;10.90;7.97;;;19.50;80.80;;;;;;4997205;28;20041;-63
2023/09/12 00:42:26;;;;;;;11.90;8.38;;;19.50;80.90;;;;;;4999336;28;20117;-63
2023/09/12 00:44:52;;;;;;;11.55;8.20;;;19.50;81.30;;;;;;4995986;28;20041;-63
2023/09/12 00:47:20;;;;;;;9.40;8.10;;;19.50;81.20;;;;;;4997951;28;20042;-62
2023/09/12 00:49:47;;;;;;;10.63;8.40;;;19.40;81.10;;;;;;4996882;28;20041;-61
2023/09/12 00:52:13;;;;;;;9.05;7.90;;;19.40;81.10;;;;;;4993667;28;20592;-65
2023/09/12 00:54:39;;;;;;;10.20;7.88;;;19.40;81.00;;;;;;4993473;28;20069;-62
2023/09/12 00:57:05;;;;;;;11.93;8.35;;;19.40;81.20;;;;;;4996547;28;20046;-64
2023/09/12 00:59:31;;;;;;;9.20;7.85;;;19.30;81.10;;;;;;4996445;28;20030;-65
2023/09/12 01:01:57;;;;;;;11.32;8.45;;;19.30;81.30;;;;;;4996780;28;20030;-64
2023/09/12 01:04:23;;;;;;;9.27;7.78;;;19.30;81.40;;;;;;4994043;28;20053;-65
2023/09/12 01:06:48;;;;;;;11.48;8.38;;;19.20;81.50;;;;;;4994705;28;20537;-64
2023/09/12 01:09:14;;;;;;;12.18;7.70;;;19.20;81.70;;;;;;4995575;28;20541;-64
2023/09/12 01:11:40;;;;;;;9.27;8.05;;;19.20;81.80;;;;;;4996416;28;20125;-63
2023/09/12 01:14:06;;;;;;;8.63;7.78;;;19.10;81.80;;;;;;4994961;28;20135;-65
2023/09/12 01:16:31;;;;;;;13.15;8.00;;;19.10;81.90;;;;;;4995760;28;20105;-64
2023/09/12 01:18:57;;;;;;;11.65;7.90;;;19.10;81.90;;;;;;4995592;28;20478;-64
2023/09/12 01:22:11;;;;;;;11.82;8.55;;;19.10;82.00;;;;;;4995128;28;20041;-63
2023/09/12 01:25:14;;;;;;;9.45;8.18;;;19.10;82.90;;;;;;4993931;28;20038;-65
2023/09/12 01:27:47;;;;;;;8.98;7.85;;;19.00;82.60;;;;;;4995082;28;20061;-64
2023/09/12 01:30:15;;;;;;;9.20;7.80;;;18.90;82.20;;;;;;4994534;28;20312;-65
2023/09/12 01:32:41;;;;;;;9.50;7.38;;;18.90;81.90;;;;;;4994122;28;20567;-64
2023/09/12 01:35:08;;;;;;;11.27;7.95;;;18.90;82.20;;;;;;4994322;28;20117;-65
2023/09/12 01:37:34;;;;;;;11.05;7.68;;;18.80;82.40;;;;;;4995878;28;20038;-64
2023/09/12 01:40:00;;;;;;;9.10;7.82;;;18.90;82.60;;;;;;4995184;28;20046;-64
2023/09/12 01:42:30;;;;;;;11.45;7.80;;;18.70;82.80;;;;;;4994870;28;20039;-63
2023/09/12 01:44:57;;;;;;;10.05;7.28;;;18.70;83.10;;;;;;4991629;28;20324;-62
2023/09/12 01:47:25;;;;;;;8.68;7.50;;;18.70;83.10;;;;;;4993050;28;20585;-65
2023/09/12 01:49:53;;;;;;;11.45;7.93;;;18.70;83.30;;;;;;4993990;28;20498;-64
2023/09/12 01:52:20;;;;;;;10.18;7.43;;;18.60;83.40;;;;;;4995568;28;20065;-64
2023/09/12 01:54:47;;;;;;;13.88;7.47;;;18.60;83.40;;;;;;4992045;28;20045;-63
2023/09/12 01:57:13;;;;;;;8.73;7.78;;;18.40;83.40;;;;;;4992010;28;20088;-64
2023/09/12 01:59:39;;;;;;;9.43;7.70;;;18.60;83.60;;;;;;4992780;28;20225;-64
2023/09/12 02:02:04;;;;;;;30.33;8.50;;;18.60;83.50;;;;;;4993587;28;20634;-63
2023/09/12 02:04:30;;;;;;;18.77;7.65;;;18.60;83.50;;;;;;4992020;28;20152;-64
2023/09/12 02:06:58;;;;;;;13.85;8.15;;;18.60;83.60;;;;;;4993003;28;20048;-64
2023/09/12 02:09:23;;;;;;;10.77;7.13;;;18.60;83.40;;;;;;4992180;28;20491;-64
2023/09/12 02:11:50;;;;;;;8.80;7.78;;;18.60;83.50;;;;;;4994898;28;20041;-63
2023/09/12 02:14:17;;;;;;;10.55;7.50;;;18.60;83.40;;;;;;4993651;28;20034;-64
2023/09/12 02:16:43;;;;;;;10.27;7.57;;;18.60;83.40;;;;;;4993075;28;20172;-65
2023/09/12 02:19:09;;;;;;;9.43;7.43;;;18.60;83.20;;;;;;4993246;28;20038;-64
2023/09/12 02:21:34;;;;;;;8.75;7.60;;;18.60;83.10;;;;;;4994303;28;20041;-64
2023/09/12 02:24:00;;;;;;;9.10;8.20;;;18.60;83.30;;;;;;4992538;28;20019;-64
2023/09/12 02:26:25;;;;;;;11.00;8.68;;;18.60;83.40;;;;;;4994237;28;20053;-64
2023/09/12 02:28:51;;;;;;;10.82;8.88;;;18.60;83.40;;;;;;4996189;28;20039;-64
2023/09/12 02:31:17;;;;;;;9.15;8.25;;;18.60;83.40;;;;;;4993396;28;20058;-64
2023/09/12 02:33:42;;;;;;;11.70;8.52;;;18.60;83.40;;;;;;4993042;28;20039;-64
2023/09/12 02:36:08;;;;;;;11.50;8.40;;;18.60;83.40;;;;;;4993018;28;20046;-64
2023/09/12 02:38:34;;;;;;;9.73;8.55;;;18.70;83.40;;;;;;4993592;28;20508;-64
2023/09/12 02:40:59;;;;;;;10.30;8.68;;;18.70;83.40;;;;;;4994296;28;20219;-64
2023/09/12 02:43:25;;;;;;;12.10;9.23;;;18.70;83.40;;;;;;4993613;28;20277;-64
2023/09/12 02:45:50;;;;;;;11.20;8.68;;;18.70;83.40;;;;;;4995654;28;20038;-64
2023/09/12 02:48:16;;;;;;;10.23;8.65;;;18.70;83.40;;;;;;4994215;28;20058;-64
2023/09/12 02:50:41;;;;;;;10.98;8.88;;;18.60;83.40;;;;;;4991979;28;20057;-64
2023/09/12 02:53:07;;;;;;;11.02;9.60;;;18.70;83.40;;;;;;4995195;28;20457;-64
2023/09/12 02:55:33;;;;;;;13.05;10.02;;;18.60;83.40;;;;;;4994947;28;20038;-65
2023/09/12 02:57:58;;;;;;;10.25;9.30;;;18.60;83.50;;;;;;4995660;28;20129;-64
2023/09/12 03:00:24;;;;;;;11.55;9.38;;;18.60;83.60;;;;;;4997548;28;20037;-64
2023/09/12 03:02:50;;;;;;;12.27;9.55;;;18.60;83.60;;;;;;4996915;28;20552;-64
2023/09/12 03:05:15;;;;;;;12.07;9.00;;;18.60;83.80;;;;;;4992473;28;20038;-63
2023/09/12 03:07:41;;;;;;;10.68;9.57;;;18.60;83.80;;;;;;4993141;28;20105;-64
2023/09/12 03:10:07;;;;;;;14.02;9.13;;;18.50;83.80;;;;;;4992578;28;20073;-64
2023/09/12 03:12:33;;;;;;;10.25;9.07;;;18.50;83.80;;;;;;4991764;28;20034;-64
2023/09/12 03:14:58;;;;;;;10.52;8.73;;;18.50;83.80;;;;;;4993961;28;20555;-65
2023/09/12 03:17:24;;;;;;;10.57;9.10;;;18.50;83.80;;;;;;4993333;28;20495;-64
2023/09/12 03:19:49;;;;;;;10.43;7.93;;;18.40;83.60;;;;;;4995381;28;20042;-65
2023/09/12 03:22:15;;;;;;;10.48;7.57;;;18.40;83.40;;;;;;4994883;28;20386;-64
2023/09/12 03:24:41;;;;;;;8.52;7.13;;;18.40;83.30;;;;;;4993579;28;20064;-64
2023/09/12 03:27:07;;;;;;;10.45;7.55;;;18.40;83.30;;;;;;4995016;28;20498;-64
2023/09/12 03:29:33;;;;;;;10.32;7.40;;;18.40;83.30;;;;;;4991585;28;20026;-64
2023/09/12 03:31:59;;;;;;;9.02;7.57;;;18.30;83.10;;;;;;4996130;28;20509;-64
2023/09/12 03:34:24;;;;;;;11.52;7.63;;;18.30;83.20;;;;;;4995751;28;20095;-64
2023/09/12 03:36:50;;;;;;;11.52;7.80;;;18.10;83.00;;;;;;4994893;28;20053;-64
2023/09/12 03:39:15;;;;;;;10.05;7.20;;;18.20;83.10;;;;;;4993841;28;20046;-64
2023/09/12 03:41:41;;;;;;;10.10;7.32;;;18.20;83.20;;;;;;4996650;28;20050;-64
2023/09/12 03:44:07;;;;;;;10.73;7.57;;;18.20;83.10;;;;;;4997115;28;20053;-64
2023/09/12 03:46:32;;;;;;;10.15;8.20;;;18.10;83.20;;;;;;4997856;28;20036;-63
2023/09/12 03:48:58;;;;;;;16.30;7.60;;;18.10;83.40;;;;;;4996471;28;20241;-64
2023/09/12 03:51:23;;;;;;;10.02;7.22;;;18.00;83.40;;;;;;4998263;28;20316;-64
2023/09/12 03:53:49;;;;;;;9.13;7.32;;;18.00;83.60;;;;;;4995381;28;20034;-64
2023/09/12 03:56:16;;;;;;;7.88;7.07;;;18.00;83.70;;;;;;4995293;28;20042;-64
2023/09/12 03:58:41;;;;;;;9.75;7.47;;;18.00;83.70;;;;;;4997563;28;20062;-64
2023/09/12 04:01:07;;;;;;;9.60;7.82;;;17.90;83.60;;;;;;4996232;28;20121;-66
2023/09/12 04:03:33;;;;;;;9.85;7.40;;;17.90;83.80;;;;;;4996267;28;20046;-64
2023/09/12 04:05:59;;;;;;;8.05;7.07;;;17.90;84.80;;;;;;4996470;28;20489;-63
2023/09/12 04:08:24;;;;;;;10.27;7.82;;;17.90;85.00;;;;;;4991490;28;20061;-64
2023/09/12 04:10:50;;;;;;;9.10;6.93;;;17.80;84.10;;;;;;4994356;28;20434;-64
2023/09/12 04:13:15;;;;;;;11.65;7.80;;;17.80;84.10;;;;;;4996766;28;20084;-62
2023/09/12 04:15:41;;;;;;;9.02;7.00;;;17.70;84.30;;;;;;4994806;28;20050;-63
2023/09/12 04:18:07;;;;;;;12.30;7.72;;;17.70;84.40;;;;;;4992388;28;20042;-63
2023/09/12 04:20:33;;;;;;;9.75;6.90;;;17.70;84.50;;;;;;4991415;28;20502;-63
2023/09/12 04:23:02;;;;;;;9.13;6.80;;;17.70;84.50;;;;;;4996446;28;21566;-61
2023/09/12 04:25:28;;;;;;;8.00;6.65;;;17.70;84.50;;;;;;4997215;28;20299;-64
2023/09/12 04:27:53;;;;;;;7.68;6.75;;;17.70;84.50;;;;;;4997351;28;20498;-64
2023/09/12 04:30:19;;;;;;;10.65;7.30;;;17.70;84.40;;;;;;4999893;28;20036;-63
2023/09/12 04:32:44;;;;;;;9.85;7.35;;;17.70;84.30;;;;;;4998718;28;20108;-63
2023/09/12 04:35:10;;;;;;;10.38;7.18;;;17.70;84.10;;;;;;4997408;28;20084;-63
2023/09/12 04:37:36;;;;;;;9.27;6.82;;;17.70;83.90;;;;;;4999965;28;20030;-63
2023/09/12 04:40:01;;;;;;;10.25;6.57;;;17.60;83.80;;;;;;4998047;28;20120;-64
2023/09/12 04:42:27;;;;;;;8.52;6.68;;;17.60;84.00;;;;;;4997276;28;20030;-63
2023/09/12 04:44:53;;;;;;;9.15;7.25;;;17.60;84.00;;;;;;4998859;28;20113;-62
2023/09/12 04:47:18;;;;;;;9.40;7.05;;;17.60;84.10;;;;;;4997595;28;20386;-62
2023/09/12 04:49:44;;;;;;;9.82;7.28;;;17.50;84.30;;;;;;4997677;28;20034;-62
2023/09/12 04:52:10;;;;;;;11.05;7.30;;;17.50;84.40;;;;;;4998336;28;20034;-64
2023/09/12 04:54:36;;;;;;;8.38;7.45;;;17.50;84.50;;;;;;4999533;28;20037;-63
2023/09/12 04:57:02;;;;;;;9.57;7.57;;;17.50;84.60;;;;;;5014992;28;20042;-63
2023/09/12 04:59:27;;;;;;;10.10;7.85;;;17.40;84.80;;;;;;4999228;28;20239;-64
2023/09/12 05:01:53;;;;;;;12.65;7.85;;;17.40;85.00;;;;;;5000024;28;20070;-63
2023/09/12 05:04:19;;;;;;;9.40;7.28;;;17.40;85.10;;;;;;4997992;28;20057;-63
2023/09/12 05:06:45;;;;;;;14.80;7.75;;;17.40;85.20;;;;;;5011679;28;20038;-63
2023/09/12 05:09:11;;;;;;;12.43;7.10;;;17.30;85.20;;;;;;4998479;28;20116;-63
2023/09/12 05:11:36;;;;;;;9.02;7.22;;;17.40;85.20;;;;;;4997532;28;20034;-63
2023/09/12 05:14:05;;;;;;;10.05;7.28;;;17.40;85.30;;;;;;4998202;28;20041;-64
2023/09/12 05:16:31;;;;;;;10.57;7.38;;;17.40;85.20;;;;;;4997085;28;20514;-61
2023/09/12 05:18:56;;;;;;;9.98;7.13;;;17.40;85.10;;;;;;4997433;28;20037;-64
2023/09/12 05:21:22;;;;;;;12.18;7.28;;;17.40;85.10;;;;;;4998606;28;20038;-63
2023/09/12 05:23:47;;;;;;;8.60;7.63;;;17.40;85.30;;;;;;4997507;28;20034;-64
2023/09/12 05:26:13;;;;;;;9.98;7.32;;;17.40;85.30;;;;;;4998837;28;20236;-62
2023/09/12 05:28:39;;;;;;;11.63;7.70;;;17.40;85.30;;;;;;4997837;28;20061;-65
2023/09/12 05:31:05;;;;;;;10.32;7.78;;;17.50;85.40;;;;;;4998421;28;20174;-63
2023/09/12 05:33:30;;;;;;;11.23;8.10;;;17.50;85.60;;;;;;4996586;28;20057;-64
2023/09/12 05:35:56;;;;;;;10.23;7.35;;;17.50;85.70;;;;;;4997592;28;20046;-64
2023/09/12 05:38:22;;;;;;;12.45;7.88;;;17.50;85.80;;;;;;4998387;28;20092;-63
2023/09/12 05:40:49;;;;;;;8.65;7.75;;;17.50;85.90;;;;;;4997051;28;20073;-63
2023/09/12 05:43:16;;;;;;;11.75;8.60;;;17.50;85.90;;;;;;4997306;28;20035;-63
2023/09/12 05:45:42;;;;;;;13.73;8.65;;;17.50;86.00;;;;;;4997602;28;20461;-63
2023/09/12 05:48:07;;;;;;;11.65;8.85;;;17.60;86.20;;;;;;4997536;28;20042;-62
2023/09/12 05:50:33;;;;;;;11.43;9.98;;;17.60;86.20;;;;;;4997248;28;20038;-63
2023/09/12 05:52:58;;;;;;;13.05;10.10;;;17.70;86.40;;;;;;4998225;28;20092;-64
2023/09/12 05:55:24;;;;;;;18.45;10.07;;;17.70;86.50;;;;;;4994840;28;20124;-61
2023/09/12 05:57:53;;;;;;;14.52;9.25;;;17.80;86.60;;;;;;4997188;28;20038;-63
2023/09/12 06:00:20;;;;;;;12.85;9.88;;;17.80;86.50;;;;;;4996254;28;20037;-63
2023/09/12 06:02:46;;;;;;;12.73;10.07;;;17.90;86.50;;;;;;4997186;28;20034;-62
2023/09/12 06:05:12;;;;;;;14.60;10.77;;;17.90;86.60;;;;;;4997776;28;20038;-63
2023/09/12 06:07:40;;;;;;;13.52;9.90;;;18.00;86.70;;;;;;4997047;28;20537;-62
2023/09/12 06:10:06;;;;;;;14.35;10.65;;;18.00;86.80;;;;;;4996986;28;20041;-63
2023/09/12 06:12:32;;;;;;;14.93;11.48;;;18.10;86.80;;;;;;4995433;28;20033;-63
2023/09/12 06:14:58;;;;;;;15.13;11.20;;;18.10;86.90;;;;;;4995701;28;20035;-63
2023/09/12 06:17:24;;;;;;;12.43;11.13;;;18.20;86.90;;;;;;4997618;28;20030;-63
2023/09/12 06:19:49;;;;;;;16.23;12.48;;;18.20;87.00;;;;;;4996871;28;20576;-61
2023/09/12 06:22:17;;;;;;;17.98;11.82;;;18.30;87.20;;;;;;4998256;28;20034;-64
2023/09/12 06:24:43;;;;;;;15.88;11.98;;;18.40;87.10;;;;;;4996507;28;20049;-62
2023/09/12 06:27:09;;;;;;;16.20;11.80;;;18.40;87.20;;;;;;4996918;28;20034;-63
2023/09/12 06:29:35;;;;;;;17.10;13.15;;;18.50;87.30;;;;;;4997466;28;20449;-63
2023/09/12 06:32:02;;;;;;;13.60;11.43;;;18.60;87.60;;;;;;4995831;28;20557;-63
2023/09/12 06:34:27;;;;;;;18.10;12.43;;;18.70;87.70;;;;;;4995356;28;20034;-63
2023/09/12 06:36:53;;;;;;;18.30;12.23;;;18.70;87.50;;;;;;4996971;28;20097;-63
2023/09/12 06:39:19;;;;;;;15.63;12.13;;;18.80;87.50;;;;;;4997018;28;20044;-65
2023/09/12 06:41:44;;;;;;;14.63;11.88;;;18.90;87.50;;;;;;4996850;28;20038;-63
2023/09/12 06:44:10;;;;;;;16.23;12.48;;;18.90;88.30;;;;;;4995914;28;20595;-64
2023/09/12 06:46:37;;;;;;;15.88;12.27;;;19.00;87.40;;;;;;4994831;28;20041;-63
2023/09/12 06:49:03;;;;;;;16.23;12.40;;;19.00;87.40;;;;;;4994563;28;20034;-63
2023/09/12 06:51:29;;;;;;;17.92;11.50;;;19.10;87.70;;;;;;4996436;28;20571;-63
2023/09/12 06:53:54;;;;;;;16.55;11.68;;;19.20;87.60;;;;;;4996356;28;20555;-62
2023/09/12 06:56:21;;;;;;;15.00;11.50;;;19.30;87.30;;;;;;4997245;28;20038;-64
2023/09/12 06:58:47;;;;;;;15.50;11.65;;;19.40;87.30;;;;;;4997185;28;20082;-63
2023/09/12 07:01:13;;;;;;;16.73;11.18;;;19.50;87.30;;;;;;4997697;28;20084;-63
2023/09/12 07:03:39;;;;;;;14.45;11.85;;;19.50;87.00;;;;;;4996629;28;20465;-63
2023/09/12 07:06:05;;;;;;;20.23;11.48;;;19.60;87.10;;;;;;4996495;28;20391;-63
2023/09/12 07:08:31;;;;;;;16.77;12.05;;;19.70;87.30;;;;;;4995717;28;20031;-65
2023/09/12 07:10:58;;;;;;;16.45;11.75;;;19.80;87.50;;;;;;4995612;28;20093;-63
2023/09/12 07:13:24;;;;;;;18.33;11.98;;;19.90;87.70;;;;;;4996808;28;20038;-64
2023/09/12 07:15:52;;;;;;;20.30;11.68;;;20.00;87.80;;;;;;4994967;28;20569;-62
2023/09/12 07:18:19;;;;;;;21.67;13.23;;;20.10;87.80;;;;;;4995610;28;20461;-62
2023/09/12 07:20:45;;;;;;;22.38;12.07;;;20.20;87.90;;;;;;4993734;28;20034;-63
2023/09/12 07:23:11;;;;;;;22.08;12.80;;;20.30;87.90;;;;;;4996424;28;20043;-63
2023/09/12 07:25:41;;;;;;;15.23;11.68;;;20.40;87.90;;;;;;4995926;28;20035;-62
2023/09/12 07:28:09;;;;;;;15.18;12.30;;;20.50;88.00;;;;;;4995898;28;20045;-63
2023/09/12 07:30:36;;;;;;;16.92;12.25;;;20.70;88.20;;;;;;4995952;28;20030;-64
2023/09/12 07:33:06;;;;;;;16.02;12.93;;;20.80;88.10;;;;;;4996017;28;20571;-63
2023/09/12 07:35:32;;;;;;;23.33;12.35;;;20.90;88.00;;;;;;4995085;28;20037;-64
2023/09/12 07:37:57;;;;;;;19.38;12.20;;;21.10;87.70;;;;;;4996652;28;20037;-63
2023/09/12 07:40:23;;;;;;;14.18;10.98;;;21.20;87.40;;;;;;4996378;28;20038;-64
2023/09/12 07:42:48;;;;;;;14.30;12.48;;;21.30;87.20;;;;;;4996727;28;20038;-64
2023/09/12 07:45:14;;;;;;;16.33;12.10;;;21.40;87.10;;;;;;4997676;28;20497;-64
2023/09/12 07:47:40;;;;;;;18.73;12.73;;;21.50;86.90;;;;;;4997644;28;20792;-63
2023/09/12 07:50:06;;;;;;;18.45;12.38;;;21.70;86.90;;;;;;4995926;28;20041;-63
2023/09/12 07:52:32;;;;;;;16.70;12.50;;;21.80;86.60;;;;;;4996042;28;20340;-64
2023/09/12 07:55:02;;;;;;;14.95;11.73;;;21.90;86.40;;;;;;4994819;28;20034;-63
2023/09/12 07:57:28;;;;;;;14.10;11.85;;;22.00;86.40;;;;;;4995003;28;20057;-65
2023/09/12 07:59:54;;;;;;;15.80;11.50;;;22.20;86.00;;;;;;4996195;28;20034;-63
2023/09/12 08:02:19;;;;;;;15.60;12.15;;;22.30;85.70;;;;;;4995538;28;20053;-64
2023/09/12 08:04:45;;;;;;;15.23;12.48;;;22.40;85.50;;;;;;4994297;28;20567;-64
2023/09/12 08:07:11;;;;;;;14.73;12.07;;;22.50;85.00;;;;;;4997062;28;20117;-64
2023/09/12 08:09:59;;;;;;;17.00;12.20;;;22.60;85.00;;;;;;4997504;28;20405;-64
2023/09/12 08:12:26;;;;;;;14.25;11.63;;;22.80;84.20;;;;;;4997059;28;20034;-64
2023/09/12 08:14:52;;;;;;;15.68;11.88;;;22.90;84.20;;;;;;4996759;28;20054;-64
2023/09/12 08:17:19;;;;;;;15.25;12.55;;;23.00;83.90;;;;;;4997464;28;20026;-65
2023/09/12 08:19:45;;;;;;;14.75;12.82;;;23.10;83.90;;;;;;4998264;28;20038;-63
2023/09/12 08:22:10;;;;;;;14.30;12.57;;;23.20;83.40;;;;;;5000408;28;20038;-63
2023/09/12 08:24:37;;;;;;;25.83;12.70;;;23.30;82.90;;;;;;5000259;28;20033;-63
2023/09/12 08:27:03;;;;;;;13.40;12.00;;;23.40;82.50;;;;;;4999392;28;20165;-63
2023/09/12 08:29:29;;;;;;;16.02;11.77;;;23.50;82.40;;;;;;4999439;28;20504;-62
2023/09/12 08:31:55;;;;;;;15.70;12.27;;;23.60;82.00;;;;;;4999180;28;20053;-64
2023/09/12 08:34:21;;;;;;;13.40;12.02;;;23.70;81.90;;;;;;5000278;28;20650;-64
2023/09/12 08:36:47;;;;;;;14.15;11.07;;;23.80;81.80;;;;;;4999983;28;20092;-64
2023/09/12 08:39:15;;;;;;;14.05;12.40;;;23.90;81.50;;;;;;4999137;28;20042;-63
2023/09/12 08:41:47;;;;;;;13.60;11.57;;;23.90;81.30;;;;;;5000342;28;20050;-64
2023/09/12 08:44:13;;;;;;;13.60;10.85;;;24.10;81.30;;;;;;5000471;28;20099;-64
2023/09/12 08:46:42;;;;;;;12.68;10.77;;;24.10;81.00;;;;;;4999174;28;20482;-64
2023/09/12 08:49:09;;;;;;;12.48;11.18;;;24.20;81.40;;;;;;4999101;28;20113;-64
2023/09/12 08:51:35;;;;;;;16.80;11.52;;;24.30;81.30;;;;;;4999149;28;20537;-64
2023/09/12 08:54:03;;;;;;;12.25;10.93;;;24.30;80.60;;;;;;5000850;28;20034;-65
2023/09/12 08:56:30;;;;;;;16.40;11.20;;;24.40;80.40;;;;;;5000746;28;20057;-65
2023/09/12 08:58:57;;;;;;;13.68;11.85;;;24.40;79.90;;;;;;5001156;28;20521;-65
2023/09/12 09:01:27;;;;;;;12.32;11.13;;;24.50;79.40;;;;;;5000810;28;20038;-63
2023/09/12 09:03:53;;;;;;;14.48;11.02;;;24.50;79.30;;;;;;5000104;28;20529;-64
2023/09/12 09:06:21;;;;;;;12.02;10.77;;;24.60;79.40;;;;;;4999950;28;20038;-64
2023/09/12 09:08:48;;;;;;;12.85;10.73;;;24.70;79.00;;;;;;4998830;28;20048;-65
2023/09/12 09:11:14;;;;;;;11.10;9.95;;;24.70;78.50;;;;;;5000917;28;20038;-64
2023/09/12 09:13:39;;;;;;;11.02;9.55;;;24.80;78.70;;;;;;4999505;28;20059;-64
2023/09/12 09:16:15;;;;;;;11.25;9.82;;;24.90;78.50;;;;;;4998910;28;20136;-65
2023/09/12 09:18:54;;;;;;;10.88;9.85;;;24.90;76.80;;;;;;4997796;28;20117;-64
2023/09/12 09:21:25;;;;;;;11.48;10.38;;;25.00;77.00;;;;;;4999887;28;20508;-63
2023/09/12 09:23:55;;;;;;;9.98;9.05;;;25.10;76.60;;;;;;4998466;28;20458;-63
2023/09/12 09:26:21;;;;;;;10.07;9.05;;;25.10;77.00;;;;;;4999511;28;20045;-63
2023/09/12 09:29:08;;;;;;;12.80;9.20;;;25.20;76.70;;;;;;4998063;28;20037;-64
2023/09/12 09:31:34;;;;;;;12.30;10.10;;;25.30;75.80;;;;;;4998471;28;20205;-64
2023/09/12 09:34:01;;;;;;;11.18;9.27;;;25.40;76.30;;;;;;4997840;28;20053;-65
2023/09/12 09:36:27;;;;;;;12.10;10.80;;;25.50;76.30;;;;;;4999288;28;20030;-65
2023/09/12 09:38:53;;;;;;;14.07;10.50;;;25.60;75.50;;;;;;4999433;28;20030;-64
2023/09/12 09:41:22;;;;;;;12.05;9.95;;;25.60;76.20;;;;;;4999343;28;20067;-63
2023/09/12 09:43:52;;;;;;;12.13;10.75;;;25.70;75.60;;;;;;4997654;28;20041;-65
2023/09/12 09:46:18;;;;;;;12.35;11.05;;;25.80;75.20;;;;;;4998549;28;20513;-64
2023/09/12 09:48:50;;;;;;;12.80;10.70;;;25.90;75.20;;;;;;4997314;28;20045;-64
2023/09/12 09:51:16;;;;;;;14.10;10.23;;;26.00;74.50;;;;;;4998633;28;20039;-64
2023/09/12 09:53:43;;;;;;;14.73;10.82;;;26.00;74.80;;;;;;4998169;28;20049;-65
2023/09/12 09:56:12;;;;;;;13.35;10.95;;;26.20;74.80;;;;;;4998029;28;20058;-64
2023/09/12 09:58:53;;;;;;;11.32;10.15;;;26.20;74.40;;;;;;4997770;28;20022;-64
2023/09/12 10:01:21;;;;;;;10.55;9.55;;;26.30;73.80;;;;;;4997736;28;20524;-64
2023/09/12 10:03:50;;;;;;;9.50;8.60;;;26.40;74.30;;;;;;4997572;28;20031;-65
2023/09/12 10:06:17;;;;;;;10.55;9.15;;;26.50;73.90;;;;;;4999500;28;20502;-64
2023/09/12 10:08:49;;;;;;;10.50;9.43;;;26.60;74.20;;;;;;4996705;28;20031;-64
2023/09/12 10:11:16;;;;;;;10.25;9.32;;;26.70;73.80;;;;;;4995862;28;20034;-63
2023/09/12 10:13:49;;;;;;;9.90;8.90;;;26.80;73.50;;;;;;4998522;28;20046;-64
2023/09/12 10:16:17;;;;;;;10.48;9.38;;;26.80;72.80;;;;;;4997824;28;20057;-63
2023/09/12 10:18:55;;;;;;;9.75;8.50;;;27.00;72.70;;;;;;4996544;28;20038;-63
2023/09/12 10:21:28;;;;;;;9.10;8.13;;;27.00;71.90;;;;;;4997997;28;20161;-65
2023/09/12 10:23:57;;;;;;;9.13;8.32;;;27.10;72.50;;;;;;4997754;28;20044;-64
2023/09/12 10:26:24;;;;;;;9.48;8.20;;;27.20;72.00;;;;;;4998107;28;20041;-64
2023/09/12 10:28:51;;;;;;;8.98;8.07;;;27.30;71.50;;;;;;4996913;28;20045;-63
2023/09/12 10:31:17;;;;;;;8.60;7.80;;;27.40;70.60;;;;;;4997907;28;20520;-64
2023/09/12 10:33:44;;;;;;;8.85;7.88;;;27.40;69.90;;;;;;4996545;28;20042;-64
2023/09/12 10:36:11;;;;;;;9.85;7.57;;;27.50;69.60;;;;;;4997486;28;20042;-64
2023/09/12 10:38:44;;;;;;;7.50;6.90;;;27.60;68.80;;;;;;4996886;28;20040;-64
2023/09/12 10:41:14;;;;;;;7.60;7.00;;;27.70;66.60;;;;;;4996475;28;20030;-64
2023/09/12 10:43:41;;;;;;;9.00;6.93;;;27.70;66.30;;;;;;4997592;28;20576;-64
2023/09/12 10:46:07;;;;;;;8.13;7.32;;;27.80;66.20;;;;;;4998072;28;20092;-64
2023/09/12 10:48:35;;;;;;;8.50;7.70;;;27.90;65.60;;;;;;4995656;28;20034;-63
2023/09/12 10:51:01;;;;;;;11.57;7.38;;;28.00;65.60;;;;;;4997503;28;20093;-64
2023/09/12 10:53:28;;;;;;;8.55;7.50;;;28.10;65.80;;;;;;4998773;28;20038;-63
2023/09/12 10:56:12;;;;;;;11.02;7.85;;;28.10;64.80;;;;;;4999104;28;20040;-63
2023/09/12 10:59:27;;;;;;;7.75;7.03;;;28.20;64.90;;;;;;4998792;28;20056;-64
2023/09/12 11:01:49;;;;;;;7.80;7.00;;;28.30;64.00;;;;;;4997982;28;20030;-64
2023/09/12 11:04:27;;;;;;;6.38;5.85;;;28.40;64.60;;;;;;4996915;28;20041;-62
2023/09/12 11:06:53;;;;;;;6.57;5.95;;;28.40;63.50;;;;;;4996281;28;20058;-64
2023/09/12 11:09:25;;;;;;;12.45;6.40;;;28.50;63.10;;;;;;4997321;28;20065;-63
2023/09/12 11:11:58;;;;;;;8.45;6.25;;;28.70;62.90;;;;;;4997332;28;20040;-64
2023/09/12 11:14:25;;;;;;;7.38;5.75;;;28.70;62.00;;;;;;4995949;28;20109;-66
2023/09/12 11:17:10;;;;;;;7.82;6.40;;;28.80;62.60;;;;;;4996769;28;20093;-64
2023/09/12 11:19:48;;;;;;;;;;;28.90;61.10;;;;;;4997323;28;20057;-64
2023/09/12 11:22:34;;;;;;;5.90;5.40;;;28.90;63.80;;;;;;4998218;28;19917;-64
2023/09/12 11:25:05;;;;;;;6.35;5.28;;;29.00;60.50;;;;;;4996924;28;20574;-64
2023/09/12 11:27:51;;;;;;;7.53;6.05;;;29.00;60.40;;;;;;4997307;28;20120;-64
2023/09/12 11:30:23;;;;;;;6.72;5.75;;;29.00;59.80;;;;;;4990666;28;20040;-63
2023/09/12 11:32:51;;;;;;;8.68;5.72;;;29.10;60.00;;;;;;4996879;28;20068;-65
2023/09/12 11:35:24;;;;;;;8.60;5.90;;;29.10;60.30;;;;;;4996692;28;20042;-64
2023/09/12 11:37:55;;;;;;;6.28;5.70;;;29.20;59.80;;;;;;5002565;28;20037;-63
2023/09/12 11:40:40;;;;;;;8.60;5.43;;;29.20;59.60;;;;;;4997249;28;20409;-62
2023/09/12 11:43:08;;;;;;;5.45;4.95;;;29.20;59.10;;;;;;4997245;28;20041;-64
2023/09/12 11:45:33;;;;;;;8.00;5.45;;;29.30;58.90;;;;;;4997438;28;20138;-64
2023/09/12 11:47:59;;;;;;;5.85;5.28;;;29.30;58.90;;;;;;4996283;28;20121;-64
2023/09/12 11:50:30;;;;;;;7.82;5.28;;;29.40;58.60;;;;;;4995939;28;20038;-64
2023/09/12 11:53:08;;;;;;;10.02;5.45;;;29.50;57.90;;;;;;4999897;28;20105;-65
2023/09/12 11:56:04;;;;;;;7.53;5.55;;;29.50;57.70;;;;;;5000087;28;20127;-64
2023/09/12 11:58:30;;;;;;;5.50;4.93;;;29.60;57.50;;;;;;5000406;28;20033;-64
2023/09/12 12:00:57;;;;;;;7.13;4.80;;;29.70;57.80;;;;;;5001049;28;20490;-64
2023/09/12 12:03:27;;;;;;;11.02;5.05;;;29.70;55.60;;;;;;4999715;28;20038;-64
2023/09/12 12:05:56;;;;;;;5.28;4.82;;;29.80;55.40;;;;;;5001454;28;20732;-66
2023/09/12 12:08:22;;;;;;;5.65;4.68;;;29.80;55.30;;;;;;5000653;28;20493;-64
2023/09/12 12:10:52;;;;;;;6.78;4.80;;;29.80;55.40;;;;;;4997845;28;20030;-64
2023/09/12 12:13:21;;;;;;;6.82;5.13;;;29.80;55.80;;;;;;5000380;28;20038;-63
2023/09/12 12:15:47;;;;;;;5.40;4.90;;;29.80;55.90;;;;;;5000143;28;20034;-64
2023/09/12 12:18:13;;;;;;;5.47;4.97;;;29.80;55.50;;;;;;4999554;28;20801;-65
2023/09/12 12:20:39;;;;;;;8.43;5.05;;;29.90;55.20;;;;;;5000578;28;20101;-65
2023/09/12 12:23:04;;;;;;;8.95;4.85;;;29.90;54.90;;;;;;5000982;28;20027;-63
2023/09/12 12:25:34;;;;;;;6.35;4.95;;;29.90;55.30;;;;;;4999897;28;20057;-64
2023/09/12 12:28:02;;;;;;;5.38;4.90;;;29.90;54.60;;;;;;4999391;28;20053;-64
2023/09/12 12:30:31;;;;;;;8.23;4.95;;;30.00;55.00;;;;;;4999288;28;20050;-64
2023/09/12 12:32:56;;;;;;;7.95;4.43;;;30.00;54.50;;;;;;5000142;28;20034;-64
2023/09/12 12:35:24;;;;;;;7.57;4.57;;;30.10;54.30;;;;;;4998606;28;20125;-65
2023/09/12 12:37:50;;;;;;;4.75;4.35;;;30.10;53.70;;;;;;4999347;28;20041;-62
2023/09/12 12:40:16;;;;;;;5.13;4.63;;;30.10;53.80;;;;;;4999277;28;20136;-64